Time;durP1;ratioP1;P1;durP2;ratioP2;P2;SDS_P1;SDS_P2;PMS_P1;PMS_P2;Temp;Humidity;BMP_temperature;BMP_pressure;BME280_temperature;BME280_humidity;BME280_pressure;Samples;Min_cycle;Max_cycle;Signal;HPM_P1;HPM_P2
2022/02/23 00:02:47;;;;;;;21.00;2.90;;;5.40;99.90;;;;;;12449011;28;20076;-37
2022/02/23 00:08:49;;;;;;;19.15;2.50;;;5.30;99.90;;;;;;12448929;28;20660;-38
2022/02/23 00:14:51;;;;;;;19.95;3.28;;;5.40;99.90;;;;;;12449212;28;20054;-36
2022/02/23 00:20:53;;;;;;;20.60;2.75;;;5.30;99.90;;;;;;12455975;28;20049;-41
2022/02/23 00:26:55;;;;;;;16.02;2.20;;;5.20;99.90;;;;;;12452145;28;20053;-40
2022/02/23 00:32:57;;;;;;;20.80;2.40;;;5.30;99.90;;;;;;12447023;28;20111;-40
2022/02/23 00:38:59;;;;;;;20.48;3.10;;;5.20;99.90;;;;;;12449935;28;20166;-38
2022/02/23 00:45:01;;;;;;;19.10;2.38;;;5.20;99.90;;;;;;12447485;28;20076;-36
2022/02/23 00:51:03;;;;;;;17.67;2.72;;;5.20;99.90;;;;;;12449675;28;20057;-40
2022/02/23 00:57:05;;;;;;;15.18;2.55;;;5.20;99.90;;;;;;12451658;28;20054;-36
2022/02/23 01:03:07;;;;;;;17.60;2.42;;;5.10;99.90;;;;;;12448554;28;20478;-36
2022/02/23 01:09:10;;;;;;;18.45;2.60;;;5.10;99.90;;;;;;12450673;28;20127;-37
2022/02/23 01:15:13;;;;;;;18.65;3.10;;;5.10;99.90;;;;;;12444852;28;20054;-37
2022/02/23 01:21:15;;;;;;;19.08;2.45;;;5.10;99.90;;;;;;12448940;28;20096;-36
2022/02/23 01:27:17;;;;;;;18.83;2.70;;;5.10;99.90;;;;;;12447085;28;20506;-40
2022/02/23 01:33:19;;;;;;;16.13;1.85;;;5.20;99.90;;;;;;12454190;28;21077;-37
2022/02/23 01:39:21;;;;;;;15.05;2.13;;;5.10;99.90;;;;;;12458925;28;20101;-40
2022/02/23 01:45:23;;;;;;;10.93;1.75;;;5.10;99.90;;;;;;12456150;28;20130;-37
2022/02/23 01:51:25;;;;;;;17.55;2.35;;;5.00;99.90;;;;;;12456285;28;20054;-39
2022/02/23 01:57:27;;;;;;;16.50;2.08;;;5.10;99.90;;;;;;12455373;28;20053;-40
2022/02/23 02:03:29;;;;;;;20.23;2.70;;;5.00;99.90;;;;;;12454000;28;20067;-40
2022/02/23 02:09:31;;;;;;;11.77;1.80;;;5.00;99.90;;;;;;12454925;28;20081;-40
2022/02/23 02:15:33;;;;;;;19.42;2.05;;;4.90;99.90;;;;;;12453735;28;20060;-36
2022/02/23 02:22:05;;;;;;;12.23;2.08;;;4.90;99.90;;;;;;12450932;28;20058;-37
2022/02/23 02:28:07;;;;;;;16.13;2.30;;;4.80;99.90;;;;;;12451152;28;20049;-36
2022/02/23 02:34:09;;;;;;;20.88;3.13;;;4.90;99.90;;;;;;12454645;28;20123;-36
2022/02/23 02:40:11;;;;;;;13.90;2.80;;;4.90;99.90;;;;;;12453666;28;20561;-40
2022/02/23 02:46:13;;;;;;;16.52;2.60;;;4.80;99.90;;;;;;12451357;28;20458;-40
2022/02/23 02:52:15;;;;;;;22.45;2.63;;;4.70;99.90;;;;;;12448869;28;20152;-40
2022/02/23 02:58:18;;;;;;;18.45;2.65;;;4.70;99.90;;;;;;12450461;28;20057;-40
2022/02/23 03:04:20;;;;;;;18.52;3.25;;;4.80;99.90;;;;;;12451015;28;20569;-36
2022/02/23 03:10:22;;;;;;;19.08;2.80;;;4.70;99.90;;;;;;12451589;28;20133;-40
2022/02/23 03:16:24;;;;;;;19.27;3.63;;;4.60;99.90;;;;;;12453413;28;20088;-40
2022/02/23 03:22:26;;;;;;;22.50;2.47;;;4.60;99.90;;;;;;12449459;28;20053;-40
2022/02/23 03:28:29;;;;;;;17.10;2.55;;;4.70;99.90;;;;;;12453001;28;20115;-37
2022/02/23 03:34:31;;;;;;;16.40;2.22;;;4.60;99.90;;;;;;12448944;28;20058;-42
2022/02/23 03:40:34;;;;;;;21.63;3.65;;;4.60;99.90;;;;;;12450023;28;20115;-40
2022/02/23 03:46:35;;;;;;;19.30;2.67;;;4.40;99.90;;;;;;12451909;28;20457;-38
2022/02/23 03:52:38;;;;;;;20.67;2.85;;;4.40;99.90;;;;;;12449910;28;20049;-39
2022/02/23 03:58:39;;;;;;;21.98;2.42;;;4.30;99.90;;;;;;12450290;28;20053;-36
2022/02/23 04:04:41;;;;;;;20.15;2.80;;;4.30;99.90;;;;;;12446741;28;20612;-40
2022/02/23 04:10:43;;;;;;;20.33;3.03;;;4.30;99.90;;;;;;12447552;28;20045;-40
2022/02/23 04:16:45;;;;;;;14.98;2.50;;;4.30;99.90;;;;;;12452026;28;20106;-41
2022/02/23 04:22:47;;;;;;;16.10;2.80;;;4.40;99.90;;;;;;12444672;28;20550;-40
2022/02/23 04:28:49;;;;;;;16.52;3.45;;;4.40;99.90;;;;;;12450902;28;20188;-39
2022/02/23 04:34:57;;;;;;;25.38;3.05;;;4.40;99.90;;;;;;12451884;28;20052;-36
2022/02/23 04:40:59;;;;;;;20.85;2.83;;;4.40;99.90;;;;;;12444762;28;20465;-37
2022/02/23 04:47:03;;;;;;;23.23;3.15;;;4.40;99.90;;;;;;12449291;28;20069;-40
2022/02/23 04:53:05;;;;;;;23.45;3.13;;;4.20;99.90;;;;;;12450277;28;20418;-39
2022/02/23 04:59:08;;;;;;;29.33;3.08;;;4.20;99.90;;;;;;12446471;28;20052;-39
2022/02/23 05:05:10;;;;;;;22.30;2.95;;;4.20;99.90;;;;;;12448562;28;20064;-40
2022/02/23 05:11:12;;;;;;;24.25;3.25;;;4.10;99.90;;;;;;12455695;28;20108;-39
2022/02/23 05:17:14;;;;;;;17.80;2.72;;;4.00;99.90;;;;;;12460265;28;20046;-36
2022/02/23 05:23:18;;;;;;;18.02;2.70;;;3.90;99.90;;;;;;12454998;28;20045;-37
2022/02/23 05:29:20;;;;;;;27.00;2.97;;;3.80;99.90;;;;;;12457668;28;20050;-40
2022/02/23 05:35:22;;;;;;;20.05;3.13;;;3.80;99.90;;;;;;12456359;28;20532;-36
2022/02/23 05:41:24;;;;;;;15.68;2.80;;;3.70;99.90;;;;;;12455691;28;20426;-40
2022/02/23 05:47:26;;;;;;;28.15;3.28;;;3.70;99.90;;;;;;12452380;28;20054;-39
2022/02/23 05:53:28;;;;;;;15.35;3.78;;;3.70;99.90;;;;;;12453370;28;20054;-36
2022/02/23 05:59:31;;;;;;;25.55;3.22;;;3.70;99.90;;;;;;12460032;28;20090;-37
2022/02/23 06:05:33;;;;;;;26.92;3.10;;;3.70;99.90;;;;;;12459833;28;20042;-36
2022/02/23 06:11:38;;;;;;;14.40;2.80;;;3.60;99.90;;;;;;12459790;28;20065;-37
2022/02/23 06:17:41;;;;;;;21.20;3.05;;;3.60;99.90;;;;;;12452793;28;20081;-36
2022/02/23 06:23:47;;;;;;;18.33;3.35;;;3.50;99.90;;;;;;12450358;28;20053;-40
2022/02/23 06:29:49;;;;;;;21.10;2.90;;;3.50;99.90;;;;;;12454091;28;20454;-36
2022/02/23 06:35:52;;;;;;;24.67;2.88;;;3.60;99.90;;;;;;12453054;28;20553;-37
2022/02/23 06:41:59;;;;;;;23.50;2.92;;;3.50;99.90;;;;;;12448703;28;20042;-36
2022/02/23 06:48:01;;;;;;;30.00;4.37;;;3.50;99.90;;;;;;12459849;28;20046;-39
2022/02/23 06:54:03;;;;;;;22.08;3.03;;;3.50;99.90;;;;;;12459456;28;20045;-39
2022/02/23 07:00:11;;;;;;;24.38;2.92;;;3.50;99.90;;;;;;12461302;28;20504;-40
2022/02/23 07:06:14;;;;;;;22.95;3.08;;;3.60;99.90;;;;;;12452854;28;20076;-40
2022/02/23 07:12:16;;;;;;;16.88;2.70;;;3.60;99.90;;;;;;12451210;28;20046;-36
2022/02/23 07:18:19;;;;;;;23.75;3.15;;;3.70;99.90;;;;;;12451295;28;20085;-41
2022/02/23 07:24:21;;;;;;;23.73;4.15;;;3.70;99.90;;;;;;12452384;28;20053;-36
2022/02/23 07:30:23;;;;;;;14.88;2.58;;;3.80;99.90;;;;;;12449436;28;20104;-40
2022/02/23 07:36:25;;;;;;;22.20;3.95;;;3.80;99.90;;;;;;12445541;28;20056;-36
2022/02/23 07:42:27;;;;;;;23.27;4.78;;;3.90;99.90;;;;;;12450074;28;20081;-36
2022/02/23 07:48:38;;;;;;;15.82;3.10;;;4.00;99.90;;;;;;12443414;28;20052;-37
2022/02/23 07:54:40;;;;;;;23.98;3.33;;;4.10;99.90;;;;;;12447961;28;20102;-40
2022/02/23 08:00:43;;;;;;;20.85;3.03;;;4.30;99.90;;;;;;12446386;28;20045;-40
2022/02/23 08:06:45;;;;;;;25.88;3.45;;;4.40;99.90;;;;;;12453608;28;20061;-41
2022/02/23 08:12:47;;;;;;;25.75;3.83;;;4.50;99.90;;;;;;12451824;28;20450;-36
2022/02/23 08:25:10;;;;;;;17.58;3.15;;;4.80;99.90;;;;;;12444333;28;20057;-40
2022/02/23 08:31:12;;;;;;;20.38;3.83;;;5.00;99.90;;;;;;12451612;28;20065;-45
2022/02/23 08:37:17;;;;;;;;;;;5.10;99.90;;;;;;12454468;28;20064;-40
2022/02/23 08:43:19;;;;;;;22.65;3.83;;;5.20;99.90;;;;;;12457283;28;19944;-40
2022/02/23 08:49:22;;;;;;;18.48;2.85;;;5.40;99.90;;;;;;12462044;28;20140;-36
2022/02/23 08:55:24;;;;;;;24.30;3.95;;;5.50;99.90;;;;;;12462604;28;20077;-36
2022/02/23 09:01:26;;;;;;;18.63;4.00;;;5.70;99.90;;;;;;12461214;28;20057;-39
2022/02/23 09:07:28;;;;;;;13.93;3.28;;;5.80;99.90;;;;;;12461594;28;20098;-41
2022/02/23 09:13:30;;;;;;;14.45;3.28;;;5.90;99.90;;;;;;12458874;28;20050;-39
2022/02/23 09:19:32;;;;;;;15.18;3.28;;;6.00;99.90;;;;;;12455296;28;20132;-36
2022/02/23 09:25:34;;;;;;;15.38;3.30;;;6.20;99.90;;;;;;12462867;28;20049;-37
2022/02/23 09:31:36;;;;;;;19.50;3.80;;;6.40;99.90;;;;;;12457512;28;20046;-36
2022/02/23 09:37:41;;;;;;;17.98;3.38;;;6.50;99.90;;;;;;12459410;28;20061;-37
2022/02/23 09:43:48;;;;;;;16.15;3.38;;;6.50;99.90;;;;;;12457719;28;20139;-37
2022/02/23 09:49:50;;;;;;;19.63;3.60;;;6.70;99.90;;;;;;12463841;28;20042;-37
2022/02/23 09:55:59;;;;;;;12.50;3.47;;;6.90;99.90;;;;;;12462807;28;20053;-40
2022/02/23 10:02:07;;;;;;;18.10;3.22;;;7.10;99.90;;;;;;12465382;28;20053;-41
2022/02/23 10:08:17;;;;;;;15.85;3.00;;;7.30;99.90;;;;;;12471902;28;20165;-37
2022/02/23 10:14:41;;;;;;;12.65;2.45;;;7.50;99.90;;;;;;12479039;28;20415;-38
2022/02/23 10:20:46;;;;;;;14.88;2.53;;;7.60;99.90;;;;;;12462202;28;20094;-36
2022/02/23 10:27:01;;;;;;;13.80;2.70;;;7.70;99.90;;;;;;12466293;28;20140;-36
2022/02/23 10:33:39;;;;;;;12.00;3.00;;;8.00;99.90;;;;;;12476476;28;20052;-41
2022/02/23 10:40:01;;;;;;;10.65;2.47;;;8.10;99.90;;;;;;12460328;28;20056;-36
2022/02/23 10:46:10;;;;;;;13.82;2.35;;;8.10;99.90;;;;;;12460807;28;20053;-37
2022/02/23 10:52:16;;;;;;;13.75;3.00;;;8.40;99.90;;;;;;12468897;28;20049;-36
2022/02/23 10:58:25;;;;;;;11.98;2.03;;;8.40;99.90;;;;;;12474251;28;20061;-36
2022/02/23 11:04:42;;;;;;;10.63;2.40;;;8.30;99.90;;;;;;12470239;28;20188;-40
2022/02/23 11:10:52;;;;;;;12.40;2.45;;;8.40;99.90;;;;;;12467250;28;20540;-40
2022/02/23 11:24:14;;;;;;;10.63;1.90;;;8.50;99.90;;;;;;12393958;28;20108;-37
2022/02/23 11:30:25;;;;;;;10.85;2.15;;;8.60;99.90;;;;;;12461956;28;20053;-40
2022/02/23 11:36:42;;;;;;;11.52;2.10;;;9.10;99.90;;;;;;12507266;28;20528;-40
2022/02/23 11:42:46;;;;;;;9.27;2.08;;;9.30;99.90;;;;;;12502995;28;20048;-37
2022/02/23 11:48:56;;;;;;;10.03;2.10;;;9.20;99.90;;;;;;12501714;28;20049;-41
2022/02/23 11:55:15;;;;;;;9.50;1.98;;;9.10;99.90;;;;;;12502655;28;20106;-36
2022/02/23 12:01:20;;;;;;;7.45;2.17;;;9.40;99.90;;;;;;12511938;28;20541;-37
2022/02/23 12:07:22;;;;;;;10.13;2.10;;;9.40;99.90;;;;;;12501373;28;20167;-41
2022/02/23 12:13:38;;;;;;;8.77;2.03;;;9.40;99.90;;;;;;12504095;28;20417;-36
2022/02/23 12:19:50;;;;;;;10.38;2.15;;;9.80;99.90;;;;;;12501714;28;20111;-37
2022/02/23 12:25:57;;;;;;;8.45;1.80;;;10.00;99.90;;;;;;12526198;28;20536;-37
2022/02/23 12:32:07;;;;;;;11.18;2.10;;;9.80;99.90;;;;;;12550351;28;20441;-41
2022/02/23 12:38:14;;;;;;;7.68;2.28;;;9.80;99.90;;;;;;12558151;28;20500;-36
2022/02/23 12:44:20;;;;;;;9.88;1.80;;;9.80;99.90;;;;;;12551379;28;20056;-40
2022/02/23 12:50:30;;;;;;;9.82;2.10;;;9.70;99.90;;;;;;12549711;28;20544;-41
2022/02/23 12:56:38;;;;;;;10.23;2.28;;;9.60;99.90;;;;;;12550090;28;20091;-40
2022/02/23 13:02:41;;;;;;;9.32;2.35;;;9.70;99.90;;;;;;12551758;28;20127;-40
2022/02/23 13:08:49;;;;;;;9.40;2.15;;;9.80;99.90;;;;;;12547556;28;20148;-36
2022/02/23 13:14:55;;;;;;;9.63;1.85;;;9.70;99.90;;;;;;12553704;28;20045;-36
2022/02/23 13:21:08;;;;;;;5.00;1.70;;;9.80;99.90;;;;;;12549589;28;20460;-41
2022/02/23 13:27:32;;;;;;;8.68;1.80;;;9.80;99.90;;;;;;12555374;28;20132;-38
2022/02/23 13:33:34;;;;;;;8.05;1.77;;;9.70;99.90;;;;;;12559608;28;20132;-40
2022/02/23 13:39:58;;;;;;;8.70;1.70;;;9.80;99.90;;;;;;12557159;28;20078;-40
2022/02/23 13:46:04;;;;;;;7.57;1.80;;;9.80;99.90;;;;;;12562678;28;20453;-36
2022/02/23 13:52:10;;;;;;;7.10;1.58;;;9.80;99.90;;;;;;12572633;28;20049;-40
2022/02/23 13:58:20;;;;;;;6.53;1.90;;;9.80;99.90;;;;;;12566612;28;20053;-36
2022/02/23 14:04:50;;;;;;;10.52;2.10;;;9.60;99.90;;;;;;12564342;28;20094;-36
2022/02/23 14:10:58;;;;;;;10.98;2.25;;;9.60;99.90;;;;;;12565208;28;20048;-40
2022/02/23 14:17:24;;;;;;;10.25;1.52;;;9.60;99.90;;;;;;12563737;28;20106;-37
2022/02/23 14:23:33;;;;;;;9.15;1.95;;;9.60;99.90;;;;;;12553755;28;20053;-40
2022/02/23 14:29:41;;;;;;;9.18;1.95;;;9.50;99.90;;;;;;12551209;28;20094;-36
2022/02/23 14:35:46;;;;;;;5.55;1.40;;;9.60;99.90;;;;;;12562785;28;20131;-37
2022/02/23 14:41:55;;;;;;;9.48;1.60;;;9.60;99.90;;;;;;12554853;28;20041;-37
2022/02/23 14:48:02;;;;;;;5.13;1.30;;;9.60;99.90;;;;;;12558653;28;20119;-41
2022/02/23 14:54:05;;;;;;;7.53;1.43;;;9.60;99.90;;;;;;12554097;28;20045;-37
2022/02/23 15:00:12;;;;;;;7.28;1.33;;;9.50;99.90;;;;;;12552658;28;20571;-40
2022/02/23 15:06:19;;;;;;;5.03;1.30;;;9.40;99.90;;;;;;12564422;28;20070;-41
2022/02/23 15:12:24;;;;;;;6.63;1.40;;;9.50;99.90;;;;;;12556114;28;20048;-36
2022/02/23 15:18:34;;;;;;;5.78;1.27;;;9.30;99.90;;;;;;12557530;28;20819;-37
2022/02/23 15:24:38;;;;;;;7.10;1.33;;;9.40;99.90;;;;;;12558822;28;20175;-40
2022/02/23 15:30:41;;;;;;;6.33;1.43;;;9.40;99.90;;;;;;12559107;28;20053;-37
2022/02/23 15:37:07;;;;;;;6.05;1.33;;;9.40;99.90;;;;;;12556100;28;20059;-37
2022/02/23 15:43:10;;;;;;;5.45;1.58;;;9.20;99.90;;;;;;12532727;28;20153;-36
2022/02/23 15:49:13;;;;;;;10.43;1.90;;;9.20;99.90;;;;;;12533561;28;20044;-37
2022/02/23 15:55:15;;;;;;;5.55;2.22;;;9.20;99.90;;;;;;12531974;28;20044;-41
2022/02/23 16:01:18;;;;;;;10.32;1.90;;;9.00;99.90;;;;;;12532325;28;20043;-37
2022/02/23 16:07:20;;;;;;;6.55;1.75;;;8.90;99.90;;;;;;12515460;28;20143;-41
2022/02/23 16:13:22;;;;;;;8.13;2.35;;;8.80;99.90;;;;;;12534407;28;20087;-37
2022/02/23 16:19:24;;;;;;;4.65;1.48;;;8.60;99.90;;;;;;12531762;28;20432;-36
2022/02/23 16:25:26;;;;;;;5.88;1.58;;;8.50;99.90;;;;;;12530351;28;20060;-41
2022/02/23 16:31:28;;;;;;;9.45;1.73;;;8.40;99.90;;;;;;12536532;28;20072;-36
2022/02/23 16:37:37;;;;;;;5.13;1.55;;;8.30;99.90;;;;;;12532598;28;20079;-37
2022/02/23 16:43:41;;;;;;;6.60;1.20;;;8.20;99.90;;;;;;12535939;28;20055;-37
2022/02/23 16:49:43;;;;;;;4.50;1.08;;;8.10;99.90;;;;;;12534323;28;20048;-41
2022/02/23 16:55:45;;;;;;;4.20;1.15;;;8.00;99.90;;;;;;12515258;28;20081;-41
2022/02/23 17:01:48;;;;;;;5.68;1.30;;;7.80;99.90;;;;;;12533582;28;20048;-36
2022/02/23 17:07:50;;;;;;;9.63;1.58;;;7.80;99.90;;;;;;12536015;28;20048;-36
2022/02/23 17:13:52;;;;;;;8.52;1.83;;;7.70;99.90;;;;;;12518599;28;20041;-37
2022/02/23 17:19:53;;;;;;;9.95;1.63;;;7.60;99.90;;;;;;12541750;28;20055;-38
2022/02/23 17:25:56;;;;;;;7.18;1.50;;;7.40;99.90;;;;;;12537175;28;20073;-38
2022/02/23 17:31:58;;;;;;;6.88;1.27;;;7.20;99.90;;;;;;12541789;28;20098;-36
2022/02/23 17:38:00;;;;;;;6.93;1.30;;;7.10;99.90;;;;;;12538548;28;20052;-37
2022/02/23 17:44:02;;;;;;;5.45;1.25;;;7.00;99.90;;;;;;12532893;28;20049;-41
2022/02/23 17:50:06;;;;;;;4.72;1.10;;;6.80;99.90;;;;;;12537009;28;20059;-40
2022/02/23 17:56:08;;;;;;;4.53;1.20;;;6.70;99.90;;;;;;12539541;28;20521;-36
2022/02/23 18:02:10;;;;;;;4.38;1.08;;;6.60;99.90;;;;;;12537903;28;20159;-36
2022/02/23 18:08:12;;;;;;;5.97;1.30;;;6.50;99.90;;;;;;12533279;28;20044;-37
2022/02/23 18:14:14;;;;;;;6.75;1.35;;;6.50;99.90;;;;;;12531517;28;20075;-36
2022/02/23 18:20:17;;;;;;;7.60;1.65;;;6.40;99.90;;;;;;12537189;28;20049;-42
2022/02/23 18:26:19;;;;;;;9.05;1.55;;;6.40;99.90;;;;;;12516033;28;20072;-41
2022/02/23 18:32:21;;;;;;;5.82;1.38;;;6.40;99.90;;;;;;12534568;28;20139;-40
2022/02/23 18:38:24;;;;;;;5.55;1.80;;;6.40;99.90;;;;;;12534875;28;20557;-37
2022/02/23 18:44:26;;;;;;;6.43;1.80;;;6.40;99.90;;;;;;12535445;28;20068;-36
2022/02/23 18:50:28;;;;;;;6.72;1.50;;;6.30;99.90;;;;;;12534277;28;20518;-41
2022/02/23 18:56:30;;;;;;;7.00;1.20;;;6.30;99.90;;;;;;12536377;28;20115;-44
2022/02/23 19:02:32;;;;;;;6.30;1.52;;;6.30;99.90;;;;;;12532373;28;20048;-36
2022/02/23 19:08:34;;;;;;;6.57;1.50;;;6.30;99.90;;;;;;12537474;28;20485;-37
2022/02/23 19:14:36;;;;;;;7.00;1.52;;;6.30;99.90;;;;;;12534150;28;20166;-40
2022/02/23 19:20:38;;;;;;;8.07;1.40;;;6.20;99.90;;;;;;12528764;28;20052;-36
2022/02/23 19:26:39;;;;;;;8.55;1.70;;;6.00;99.90;;;;;;12534525;28;20140;-37
2022/02/23 19:32:43;;;;;;;7.03;1.40;;;5.90;99.90;;;;;;12536629;28;20083;-40
2022/02/23 19:38:45;;;;;;;8.55;1.55;;;5.80;99.90;;;;;;12534801;28;20052;-41
2022/02/23 19:44:46;;;;;;;7.72;1.75;;;6.00;99.90;;;;;;12534140;28;20127;-40
2022/02/23 19:50:51;;;;;;;8.00;1.60;;;6.00;99.90;;;;;;12530866;28;20055;-37
2022/02/23 19:56:53;;;;;;;8.38;1.67;;;6.10;99.90;;;;;;12534772;28;20045;-41
2022/02/23 20:02:55;;;;;;;6.25;1.63;;;6.10;99.90;;;;;;12532251;28;20488;-40
2022/02/23 20:08:58;;;;;;;4.97;1.67;;;6.20;99.90;;;;;;12536437;28;20091;-41
2022/02/23 20:15:00;;;;;;;5.72;1.90;;;6.30;99.90;;;;;;12535035;28;20044;-40
2022/02/23 20:21:02;;;;;;;6.22;1.50;;;6.30;99.90;;;;;;12537053;28;20584;-41
2022/02/23 20:27:04;;;;;;;8.00;1.60;;;6.40;99.90;;;;;;12531226;28;20383;-36
2022/02/23 20:33:06;;;;;;;11.18;1.77;;;6.30;99.90;;;;;;12531581;28;20087;-36
2022/02/23 20:39:08;;;;;;;8.63;1.83;;;6.30;99.90;;;;;;12531307;28;20061;-36
2022/02/23 20:45:12;;;;;;;13.20;2.35;;;6.40;99.90;;;;;;12512126;28;20048;-36
2022/02/23 20:51:14;;;;;;;8.13;2.80;;;6.40;99.90;;;;;;12527828;28;20055;-40
2022/02/23 20:57:16;;;;;;;7.13;1.73;;;6.40;99.90;;;;;;12531009;28;20053;-36
2022/02/23 21:03:18;;;;;;;5.32;1.50;;;6.30;99.90;;;;;;12530599;28;20052;-40
2022/02/23 21:09:20;;;;;;;5.90;1.45;;;6.20;99.90;;;;;;12532348;28;20117;-37
2022/02/23 21:15:24;;;;;;;8.82;1.90;;;6.10;99.90;;;;;;12530166;28;20052;-36
2022/02/23 21:21:26;;;;;;;8.47;1.60;;;6.20;99.90;;;;;;12528332;28;20706;-41
2022/02/23 21:27:28;;;;;;;5.40;1.50;;;6.20;99.90;;;;;;12529067;28;20311;-36
2022/02/23 21:33:30;;;;;;;8.05;1.60;;;6.10;99.90;;;;;;12527948;28;20105;-39
2022/02/23 21:39:33;;;;;;;5.05;1.38;;;6.10;99.90;;;;;;12526315;28;20048;-40
2022/02/23 21:45:35;;;;;;;3.80;1.20;;;6.00;99.90;;;;;;12527045;28;20048;-36
2022/02/23 21:51:37;;;;;;;7.10;1.63;;;6.00;99.90;;;;;;12533749;28;20060;-40
2022/02/23 21:57:39;;;;;;;4.93;1.58;;;6.00;99.90;;;;;;12536528;28;20082;-40
2022/02/23 22:03:42;;;;;;;5.63;1.70;;;6.00;99.90;;;;;;12536558;28;20171;-37
2022/02/23 22:09:44;;;;;;;4.03;1.23;;;6.10;99.90;;;;;;12539582;28;20047;-36
2022/02/23 22:15:45;;;;;;;6.10;1.33;;;6.20;99.90;;;;;;12540300;28;20512;-36
2022/02/23 22:21:47;;;;;;;5.35;1.17;;;6.30;99.90;;;;;;12535632;28;20048;-40
2022/02/23 22:27:49;;;;;;;9.77;1.17;;;6.40;99.90;;;;;;12539958;28;20056;-41
2022/02/23 22:33:51;;;;;;;4.60;1.50;;;6.40;99.90;;;;;;12537537;28;20744;-36
2022/02/23 22:39:53;;;;;;;4.38;1.05;;;6.40;99.90;;;;;;12530986;28;20044;-42
2022/02/23 22:45:55;;;;;;;4.75;1.30;;;6.40;99.90;;;;;;12537942;28;20140;-36
2022/02/23 22:51:57;;;;;;;5.57;1.38;;;6.50;99.90;;;;;;12528200;28;20555;-36
2022/02/23 22:57:59;;;;;;;4.75;1.48;;;6.50;99.90;;;;;;12537794;28;20135;-40
2022/02/23 23:04:01;;;;;;;4.43;1.38;;;6.50;99.90;;;;;;12531379;28;20135;-36
2022/02/23 23:10:03;;;;;;;6.82;1.60;;;6.50;99.90;;;;;;12538433;28;20041;-40
2022/02/23 23:16:06;;;;;;;7.40;1.40;;;6.40;99.90;;;;;;12516980;28;20545;-36
2022/02/23 23:22:08;;;;;;;5.88;1.23;;;6.40;99.90;;;;;;12535085;28;20044;-39
2022/02/23 23:28:10;;;;;;;5.47;1.20;;;6.30;99.90;;;;;;12535468;28;20060;-36
2022/02/23 23:34:12;;;;;;;6.15;1.30;;;6.30;99.90;;;;;;12533639;28;20970;-40
2022/02/23 23:40:14;;;;;;;7.22;1.60;;;6.40;99.90;;;;;;12533683;28;20051;-36
2022/02/23 23:46:16;;;;;;;5.05;1.42;;;6.50;99.90;;;;;;12527199;28;21564;-39
2022/02/23 23:52:18;;;;;;;4.10;1.15;;;6.50;99.90;;;;;;12532502;28;20052;-40
2022/02/23 23:58:22;;;;;;;4.63;1.20;;;6.50;99.90;;;;;;12532555;28;20055;-36
